sensor_id;sensor_type;location;lat;lon;timestamp;P1;durP1;ratioP1;P2;durP2;ratioP2
27025;SDS011;14565;48.626;8.978;2024-02-23T00:01:43;0.30;;;0.30;;
27025;SDS011;14565;48.626;8.978;2024-02-23T00:04:09;0.20;;;0.20;;
27025;SDS011;14565;48.626;8.978;2024-02-23T00:06:35;0.20;;;0.20;;
27025;SDS011;14565;48.626;8.978;2024-02-23T00:09:00;1.20;;;0.20;;
27025;SDS011;14565;48.626;8.978;2024-02-23T00:11:26;0.20;;;0.20;;
27025;SDS011;14565;48.626;8.978;2024-02-23T00:13:53;0.38;;;0.20;;
27025;SDS011;14565;48.626;8.978;2024-02-23T00:16:19;0.20;;;0.20;;
27025;SDS011;14565;48.626;8.978;2024-02-23T00:18:44;3.47;;;0.30;;
27025;SDS011;14565;48.626;8.978;2024-02-23T00:21:10;0.50;;;0.30;;
27025;SDS011;14565;48.626;8.978;2024-02-23T00:23:36;7.38;;;0.40;;
27025;SDS011;14565;48.626;8.978;2024-02-23T00:26:02;0.85;;;0.30;;
27025;SDS011;14565;48.626;8.978;2024-02-23T00:28:27;2.72;;;0.40;;
27025;SDS011;14565;48.626;8.978;2024-02-23T00:30:53;1.67;;;0.32;;
27025;SDS011;14565;48.626;8.978;2024-02-23T00:33:19;0.82;;;0.30;;
27025;SDS011;14565;48.626;8.978;2024-02-23T00:35:44;1.40;;;0.30;;
27025;SDS011;14565;48.626;8.978;2024-02-23T00:38:10;2.15;;;0.40;;
27025;SDS011;14565;48.626;8.978;2024-02-23T00:40:36;1.98;;;0.30;;
27025;SDS011;14565;48.626;8.978;2024-02-23T00:43:02;2.30;;;0.57;;
27025;SDS011;14565;48.626;8.978;2024-02-23T00:45:28;1.75;;;0.25;;
27025;SDS011;14565;48.626;8.978;2024-02-23T00:47:54;2.08;;;0.38;;
27025;SDS011;14565;48.626;8.978;2024-02-23T00:50:19;6.93;;;0.50;;
27025;SDS011;14565;48.626;8.978;2024-02-23T00:52:45;3.58;;;0.40;;
27025;SDS011;14565;48.626;8.978;2024-02-23T00:55:11;3.58;;;0.40;;
27025;SDS011;14565;48.626;8.978;2024-02-23T00:57:37;1.92;;;0.35;;
27025;SDS011;14565;48.626;8.978;2024-02-23T01:00:03;4.43;;;0.70;;
27025;SDS011;14565;48.626;8.978;2024-02-23T01:02:34;2.38;;;0.50;;
27025;SDS011;14565;48.626;8.978;2024-02-23T01:04:59;2.03;;;0.40;;
27025;SDS011;14565;48.626;8.978;2024-02-23T01:07:25;4.45;;;0.57;;
27025;SDS011;14565;48.626;8.978;2024-02-23T01:09:51;2.45;;;0.60;;
27025;SDS011;14565;48.626;8.978;2024-02-23T01:12:16;3.08;;;0.50;;
27025;SDS011;14565;48.626;8.978;2024-02-23T01:14:42;6.93;;;0.77;;
27025;SDS011;14565;48.626;8.978;2024-02-23T01:17:08;3.80;;;0.80;;
27025;SDS011;14565;48.626;8.978;2024-02-23T01:19:33;3.28;;;0.88;;
27025;SDS011;14565;48.626;8.978;2024-02-23T01:21:59;3.10;;;0.93;;
27025;SDS011;14565;48.626;8.978;2024-02-23T01:24:28;5.57;;;1.40;;
27025;SDS011;14565;48.626;8.978;2024-02-23T01:26:54;7.15;;;1.40;;
27025;SDS011;14565;48.626;8.978;2024-02-23T01:29:21;5.75;;;1.52;;
27025;SDS011;14565;48.626;8.978;2024-02-23T01:31:47;4.63;;;1.30;;
27025;SDS011;14565;48.626;8.978;2024-02-23T01:34:13;5.07;;;1.38;;
27025;SDS011;14565;48.626;8.978;2024-02-23T01:36:39;6.32;;;1.10;;
27025;SDS011;14565;48.626;8.978;2024-02-23T01:39:05;6.60;;;1.33;;
27025;SDS011;14565;48.626;8.978;2024-02-23T01:41:31;2.47;;;0.80;;
27025;SDS011;14565;48.626;8.978;2024-02-23T01:43:57;3.78;;;0.80;;
27025;SDS011;14565;48.626;8.978;2024-02-23T01:46:23;3.33;;;0.60;;
27025;SDS011;14565;48.626;8.978;2024-02-23T01:48:48;3.30;;;0.60;;
27025;SDS011;14565;48.626;8.978;2024-02-23T01:51:14;4.05;;;0.60;;
27025;SDS011;14565;48.626;8.978;2024-02-23T01:53:41;2.05;;;0.52;;
27025;SDS011;14565;48.626;8.978;2024-02-23T01:56:06;1.85;;;0.60;;
27025;SDS011;14565;48.626;8.978;2024-02-23T01:58:33;2.85;;;0.60;;
27025;SDS011;14565;48.626;8.978;2024-02-23T02:03:27;4.07;;;0.50;;
27025;SDS011;14565;48.626;8.978;2024-02-23T02:05:52;1.35;;;0.50;;
27025;SDS011;14565;48.626;8.978;2024-02-23T02:08:20;1.90;;;0.70;;
27025;SDS011;14565;48.626;8.978;2024-02-23T02:10:45;1.75;;;0.60;;
27025;SDS011;14565;48.626;8.978;2024-02-23T02:13:12;4.00;;;0.60;;
27025;SDS011;14565;48.626;8.978;2024-02-23T02:15:37;1.35;;;0.30;;
27025;SDS011;14565;48.626;8.978;2024-02-23T02:18:03;3.78;;;0.47;;
27025;SDS011;14565;48.626;8.978;2024-02-23T02:20:32;3.30;;;0.40;;
27025;SDS011;14565;48.626;8.978;2024-02-23T02:22:58;0.73;;;0.30;;
27025;SDS011;14565;48.626;8.978;2024-02-23T02:25:24;2.92;;;0.40;;
27025;SDS011;14565;48.626;8.978;2024-02-23T02:27:49;0.80;;;0.38;;
27025;SDS011;14565;48.626;8.978;2024-02-23T02:30:15;2.40;;;0.50;;
27025;SDS011;14565;48.626;8.978;2024-02-23T02:32:41;1.40;;;0.30;;
27025;SDS011;14565;48.626;8.978;2024-02-23T02:35:07;2.72;;;0.40;;
27025;SDS011;14565;48.626;8.978;2024-02-23T02:37:32;3.47;;;0.35;;
27025;SDS011;14565;48.626;8.978;2024-02-23T02:39:59;2.60;;;0.40;;
27025;SDS011;14565;48.626;8.978;2024-02-23T02:42:25;2.08;;;0.35;;
27025;SDS011;14565;48.626;8.978;2024-02-23T02:44:50;2.50;;;0.35;;
27025;SDS011;14565;48.626;8.978;2024-02-23T02:47:16;1.90;;;0.63;;
27025;SDS011;14565;48.626;8.978;2024-02-23T02:49:42;2.30;;;0.43;;
27025;SDS011;14565;48.626;8.978;2024-02-23T02:52:07;1.38;;;0.40;;
27025;SDS011;14565;48.626;8.978;2024-02-23T02:54:33;2.13;;;0.50;;
27025;SDS011;14565;48.626;8.978;2024-02-23T02:56:59;1.98;;;0.47;;
27025;SDS011;14565;48.626;8.978;2024-02-23T02:59:24;3.08;;;0.50;;
27025;SDS011;14565;48.626;8.978;2024-02-23T03:01:50;3.45;;;0.47;;
27025;SDS011;14565;48.626;8.978;2024-02-23T03:04:16;1.83;;;0.40;;
27025;SDS011;14565;48.626;8.978;2024-02-23T03:06:41;3.30;;;0.50;;
27025;SDS011;14565;48.626;8.978;2024-02-23T03:09:07;4.85;;;0.50;;
27025;SDS011;14565;48.626;8.978;2024-02-23T03:11:33;2.22;;;0.55;;
27025;SDS011;14565;48.626;8.978;2024-02-23T03:13:58;5.05;;;0.50;;
27025;SDS011;14565;48.626;8.978;2024-02-23T03:16:24;1.30;;;0.47;;
27025;SDS011;14565;48.626;8.978;2024-02-23T03:18:54;2.90;;;0.50;;
27025;SDS011;14565;48.626;8.978;2024-02-23T03:21:20;2.05;;;0.30;;
27025;SDS011;14565;48.626;8.978;2024-02-23T03:23:45;2.10;;;0.40;;
27025;SDS011;14565;48.626;8.978;2024-02-23T03:26:11;2.75;;;0.50;;
27025;SDS011;14565;48.626;8.978;2024-02-23T03:28:37;2.55;;;0.52;;
27025;SDS011;14565;48.626;8.978;2024-02-23T03:31:02;1.95;;;0.35;;
27025;SDS011;14565;48.626;8.978;2024-02-23T03:33:28;2.10;;;0.50;;
27025;SDS011;14565;48.626;8.978;2024-02-23T03:35:53;2.53;;;0.50;;
27025;SDS011;14565;48.626;8.978;2024-02-23T03:38:20;1.77;;;0.40;;
27025;SDS011;14565;48.626;8.978;2024-02-23T03:40:46;6.35;;;0.50;;
27025;SDS011;14565;48.626;8.978;2024-02-23T03:43:11;3.25;;;0.40;;
27025;SDS011;14565;48.626;8.978;2024-02-23T03:45:37;3.95;;;0.43;;
27025;SDS011;14565;48.626;8.978;2024-02-23T03:48:03;2.67;;;0.52;;
27025;SDS011;14565;48.626;8.978;2024-02-23T03:50:29;1.08;;;0.40;;
27025;SDS011;14565;48.626;8.978;2024-02-23T03:52:58;3.92;;;0.40;;
27025;SDS011;14565;48.626;8.978;2024-02-23T03:55:24;2.88;;;0.40;;
27025;SDS011;14565;48.626;8.978;2024-02-23T03:57:49;2.40;;;0.45;;
27025;SDS011;14565;48.626;8.978;2024-02-23T04:00:15;3.40;;;0.40;;
27025;SDS011;14565;48.626;8.978;2024-02-23T04:02:41;3.78;;;0.50;;
27025;SDS011;14565;48.626;8.978;2024-02-23T04:05:06;3.03;;;0.60;;
27025;SDS011;14565;48.626;8.978;2024-02-23T04:07:32;1.85;;;0.60;;
27025;SDS011;14565;48.626;8.978;2024-02-23T04:09:58;4.20;;;1.63;;
27025;SDS011;14565;48.626;8.978;2024-02-23T04:12:23;2.75;;;1.00;;
27025;SDS011;14565;48.626;8.978;2024-02-23T04:14:49;2.40;;;0.70;;
27025;SDS011;14565;48.626;8.978;2024-02-23T04:17:15;2.67;;;0.50;;
27025;SDS011;14565;48.626;8.978;2024-02-23T04:19:41;1.35;;;0.38;;
27025;SDS011;14565;48.626;8.978;2024-02-23T04:22:07;2.45;;;0.40;;
27025;SDS011;14565;48.626;8.978;2024-02-23T04:24:35;2.30;;;0.50;;
27025;SDS011;14565;48.626;8.978;2024-02-23T04:27:03;1.52;;;0.47;;
27025;SDS011;14565;48.626;8.978;2024-02-23T04:29:29;1.30;;;0.50;;
27025;SDS011;14565;48.626;8.978;2024-02-23T04:31:55;4.70;;;0.50;;
27025;SDS011;14565;48.626;8.978;2024-02-23T04:34:20;4.07;;;0.60;;
27025;SDS011;14565;48.626;8.978;2024-02-23T04:36:46;4.88;;;0.55;;
27025;SDS011;14565;48.626;8.978;2024-02-23T04:39:12;2.55;;;0.50;;
27025;SDS011;14565;48.626;8.978;2024-02-23T04:41:37;1.40;;;0.40;;
27025;SDS011;14565;48.626;8.978;2024-02-23T04:44:03;4.15;;;0.90;;
27025;SDS011;14565;48.626;8.978;2024-02-23T04:46:30;3.08;;;0.68;;
27025;SDS011;14565;48.626;8.978;2024-02-23T04:48:56;4.80;;;0.73;;
27025;SDS011;14565;48.626;8.978;2024-02-23T04:51:22;2.33;;;0.50;;
27025;SDS011;14565;48.626;8.978;2024-02-23T04:53:48;3.28;;;0.60;;
27025;SDS011;14565;48.626;8.978;2024-02-23T04:56:15;13.65;;;3.28;;
27025;SDS011;14565;48.626;8.978;2024-02-23T04:58:40;1.98;;;0.60;;
27025;SDS011;14565;48.626;8.978;2024-02-23T05:01:09;2.20;;;0.50;;
27025;SDS011;14565;48.626;8.978;2024-02-23T05:03:35;2.42;;;0.43;;
27025;SDS011;14565;48.626;8.978;2024-02-23T05:06:02;0.98;;;0.38;;
27025;SDS011;14565;48.626;8.978;2024-02-23T05:08:28;5.35;;;0.82;;
27025;SDS011;14565;48.626;8.978;2024-02-23T05:10:55;4.43;;;0.88;;
27025;SDS011;14565;48.626;8.978;2024-02-23T05:13:21;4.32;;;0.70;;
27025;SDS011;14565;48.626;8.978;2024-02-23T05:15:47;2.92;;;0.90;;
27025;SDS011;14565;48.626;8.978;2024-02-23T05:18:12;1.77;;;0.60;;
27025;SDS011;14565;48.626;8.978;2024-02-23T05:20:38;5.20;;;2.28;;
27025;SDS011;14565;48.626;8.978;2024-02-23T05:23:04;28.08;;;12.38;;
27025;SDS011;14565;48.626;8.978;2024-02-23T05:25:29;18.30;;;10.80;;
27025;SDS011;14565;48.626;8.978;2024-02-23T05:27:55;9.80;;;5.18;;
27025;SDS011;14565;48.626;8.978;2024-02-23T05:30:21;3.53;;;1.60;;
27025;SDS011;14565;48.626;8.978;2024-02-23T05:32:47;4.28;;;1.48;;
27025;SDS011;14565;48.626;8.978;2024-02-23T05:35:13;4.15;;;0.88;;
27025;SDS011;14565;48.626;8.978;2024-02-23T05:37:39;1.88;;;0.50;;
27025;SDS011;14565;48.626;8.978;2024-02-23T05:40:05;2.38;;;0.43;;
27025;SDS011;14565;48.626;8.978;2024-02-23T05:42:32;3.92;;;0.55;;
27025;SDS011;14565;48.626;8.978;2024-02-23T05:44:58;2.90;;;0.50;;
27025;SDS011;14565;48.626;8.978;2024-02-23T05:47:23;1.60;;;0.40;;
27025;SDS011;14565;48.626;8.978;2024-02-23T05:49:50;2.53;;;0.45;;
27025;SDS011;14565;48.626;8.978;2024-02-23T05:52:16;0.65;;;0.40;;
27025;SDS011;14565;48.626;8.978;2024-02-23T05:54:41;2.78;;;0.40;;
27025;SDS011;14565;48.626;8.978;2024-02-23T05:57:07;1.85;;;0.60;;
27025;SDS011;14565;48.626;8.978;2024-02-23T05:59:33;4.50;;;0.47;;
27025;SDS011;14565;48.626;8.978;2024-02-23T06:01:59;4.65;;;0.57;;
27025;SDS011;14565;48.626;8.978;2024-02-23T06:04:24;6.07;;;0.70;;
27025;SDS011;14565;48.626;8.978;2024-02-23T06:06:50;4.40;;;0.70;;
27025;SDS011;14565;48.626;8.978;2024-02-23T06:09:16;3.92;;;0.50;;
27025;SDS011;14565;48.626;8.978;2024-02-23T06:11:41;4.00;;;0.40;;
27025;SDS011;14565;48.626;8.978;2024-02-23T06:14:07;6.15;;;3.47;;
27025;SDS011;14565;48.626;8.978;2024-02-23T06:16:33;6.88;;;1.73;;
27025;SDS011;14565;48.626;8.978;2024-02-23T06:18:59;1.25;;;0.50;;
27025;SDS011;14565;48.626;8.978;2024-02-23T06:21:25;5.90;;;0.52;;
27025;SDS011;14565;48.626;8.978;2024-02-23T06:23:51;1.50;;;0.40;;
27025;SDS011;14565;48.626;8.978;2024-02-23T06:26:18;2.58;;;0.45;;
27025;SDS011;14565;48.626;8.978;2024-02-23T06:28:43;4.20;;;0.65;;
27025;SDS011;14565;48.626;8.978;2024-02-23T06:31:09;2.55;;;0.40;;
27025;SDS011;14565;48.626;8.978;2024-02-23T06:33:35;5.88;;;0.70;;
27025;SDS011;14565;48.626;8.978;2024-02-23T06:36:01;4.03;;;0.60;;
27025;SDS011;14565;48.626;8.978;2024-02-23T06:38:28;1.90;;;0.60;;
27025;SDS011;14565;48.626;8.978;2024-02-23T06:40:53;1.77;;;0.55;;
27025;SDS011;14565;48.626;8.978;2024-02-23T06:43:21;3.92;;;0.70;;
27025;SDS011;14565;48.626;8.978;2024-02-23T06:45:46;1.98;;;0.50;;
27025;SDS011;14565;48.626;8.978;2024-02-23T06:48:12;1.88;;;0.50;;
27025;SDS011;14565;48.626;8.978;2024-02-23T06:50:37;2.10;;;0.40;;
27025;SDS011;14565;48.626;8.978;2024-02-23T06:53:03;1.75;;;0.40;;
27025;SDS011;14565;48.626;8.978;2024-02-23T06:55:30;1.98;;;0.50;;
27025;SDS011;14565;48.626;8.978;2024-02-23T06:57:56;1.50;;;0.60;;
27025;SDS011;14565;48.626;8.978;2024-02-23T07:00:21;1.95;;;0.55;;
27025;SDS011;14565;48.626;8.978;2024-02-23T07:02:47;1.23;;;0.40;;
27025;SDS011;14565;48.626;8.978;2024-02-23T07:05:13;2.33;;;0.60;;
27025;SDS011;14565;48.626;8.978;2024-02-23T07:07:39;2.30;;;0.43;;
27025;SDS011;14565;48.626;8.978;2024-02-23T07:10:05;2.17;;;0.50;;
27025;SDS011;14565;48.626;8.978;2024-02-23T07:12:31;3.22;;;0.60;;
27025;SDS011;14565;48.626;8.978;2024-02-23T07:14:57;2.60;;;0.50;;
27025;SDS011;14565;48.626;8.978;2024-02-23T07:17:23;4.07;;;0.50;;
27025;SDS011;14565;48.626;8.978;2024-02-23T07:19:49;0.68;;;0.47;;
27025;SDS011;14565;48.626;8.978;2024-02-23T07:22:16;4.13;;;0.55;;
27025;SDS011;14565;48.626;8.978;2024-02-23T07:24:48;1.05;;;0.43;;
27025;SDS011;14565;48.626;8.978;2024-02-23T07:27:14;2.33;;;0.50;;
27025;SDS011;14565;48.626;8.978;2024-02-23T07:29:40;2.90;;;0.60;;
27025;SDS011;14565;48.626;8.978;2024-02-23T07:32:05;3.15;;;0.82;;
27025;SDS011;14565;48.626;8.978;2024-02-23T07:34:31;1.67;;;0.45;;
27025;SDS011;14565;48.626;8.978;2024-02-23T07:36:57;2.97;;;0.73;;
27025;SDS011;14565;48.626;8.978;2024-02-23T07:39:23;3.40;;;0.60;;
27025;SDS011;14565;48.626;8.978;2024-02-23T07:41:48;2.65;;;0.80;;
27025;SDS011;14565;48.626;8.978;2024-02-23T07:44:14;3.20;;;0.60;;
27025;SDS011;14565;48.626;8.978;2024-02-23T07:46:39;2.63;;;0.50;;
27025;SDS011;14565;48.626;8.978;2024-02-23T07:49:06;2.63;;;0.50;;
27025;SDS011;14565;48.626;8.978;2024-02-23T07:51:32;3.92;;;0.60;;
27025;SDS011;14565;48.626;8.978;2024-02-23T07:53:58;6.70;;;0.70;;
27025;SDS011;14565;48.626;8.978;2024-02-23T07:56:23;2.47;;;0.47;;
27025;SDS011;14565;48.626;8.978;2024-02-23T07:58:49;5.07;;;0.82;;
27025;SDS011;14565;48.626;8.978;2024-02-23T08:01:15;4.90;;;0.50;;
27025;SDS011;14565;48.626;8.978;2024-02-23T08:03:40;3.85;;;0.70;;
27025;SDS011;14565;48.626;8.978;2024-02-23T08:06:06;2.78;;;0.47;;
27025;SDS011;14565;48.626;8.978;2024-02-23T08:08:32;2.38;;;0.50;;
27025;SDS011;14565;48.626;8.978;2024-02-23T08:11:00;5.75;;;1.15;;
27025;SDS011;14565;48.626;8.978;2024-02-23T08:13:27;12.20;;;2.00;;
27025;SDS011;14565;48.626;8.978;2024-02-23T08:15:52;4.68;;;1.60;;
27025;SDS011;14565;48.626;8.978;2024-02-23T08:18:18;3.08;;;0.82;;
27025;SDS011;14565;48.626;8.978;2024-02-23T08:20:44;2.65;;;0.50;;
27025;SDS011;14565;48.626;8.978;2024-02-23T08:23:09;4.75;;;0.50;;
27025;SDS011;14565;48.626;8.978;2024-02-23T08:25:36;2.13;;;0.52;;
27025;SDS011;14565;48.626;8.978;2024-02-23T08:28:01;6.35;;;1.30;;
27025;SDS011;14565;48.626;8.978;2024-02-23T08:30:27;5.93;;;0.70;;
27025;SDS011;14565;48.626;8.978;2024-02-23T08:32:53;3.47;;;0.57;;
27025;SDS011;14565;48.626;8.978;2024-02-23T08:35:19;6.05;;;0.75;;
27025;SDS011;14565;48.626;8.978;2024-02-23T08:37:45;3.53;;;0.70;;
27025;SDS011;14565;48.626;8.978;2024-02-23T08:40:11;2.35;;;0.60;;
27025;SDS011;14565;48.626;8.978;2024-02-23T08:42:37;3.13;;;0.60;;
27025;SDS011;14565;48.626;8.978;2024-02-23T08:45:02;5.20;;;0.60;;
27025;SDS011;14565;48.626;8.978;2024-02-23T08:47:29;4.13;;;0.65;;
27025;SDS011;14565;48.626;8.978;2024-02-23T08:49:58;1.38;;;0.60;;
27025;SDS011;14565;48.626;8.978;2024-02-23T08:52:24;4.72;;;0.57;;
27025;SDS011;14565;48.626;8.978;2024-02-23T08:54:50;3.85;;;0.77;;
27025;SDS011;14565;48.626;8.978;2024-02-23T08:57:16;5.47;;;0.60;;
27025;SDS011;14565;48.626;8.978;2024-02-23T08:59:44;4.38;;;0.40;;
27025;SDS011;14565;48.626;8.978;2024-02-23T09:02:10;3.30;;;0.80;;
27025;SDS011;14565;48.626;8.978;2024-02-23T09:04:36;3.10;;;0.50;;
27025;SDS011;14565;48.626;8.978;2024-02-23T09:07:02;3.03;;;0.60;;
27025;SDS011;14565;48.626;8.978;2024-02-23T09:09:27;7.35;;;1.00;;
27025;SDS011;14565;48.626;8.978;2024-02-23T09:11:53;4.78;;;0.70;;
27025;SDS011;14565;48.626;8.978;2024-02-23T09:14:19;1.98;;;0.60;;
27025;SDS011;14565;48.626;8.978;2024-02-23T09:16:44;3.58;;;0.70;;
27025;SDS011;14565;48.626;8.978;2024-02-23T09:19:15;3.85;;;0.63;;
27025;SDS011;14565;48.626;8.978;2024-02-23T09:21:41;5.28;;;0.70;;
27025;SDS011;14565;48.626;8.978;2024-02-23T09:24:07;2.45;;;0.70;;
27025;SDS011;14565;48.626;8.978;2024-02-23T09:26:33;4.68;;;0.98;;
27025;SDS011;14565;48.626;8.978;2024-02-23T09:28:58;4.72;;;0.73;;
27025;SDS011;14565;48.626;8.978;2024-02-23T09:31:24;3.67;;;0.63;;
27025;SDS011;14565;48.626;8.978;2024-02-23T09:33:51;2.90;;;0.60;;
27025;SDS011;14565;48.626;8.978;2024-02-23T09:36:17;2.80;;;0.50;;
27025;SDS011;14565;48.626;8.978;2024-02-23T09:38:43;5.50;;;0.70;;
27025;SDS011;14565;48.626;8.978;2024-02-23T09:41:11;2.38;;;0.50;;
27025;SDS011;14565;48.626;8.978;2024-02-23T09:43:44;6.43;;;1.25;;
27025;SDS011;14565;48.626;8.978;2024-02-23T09:46:13;2.88;;;0.63;;
27025;SDS011;14565;48.626;8.978;2024-02-23T09:48:39;4.38;;;0.73;;
27025;SDS011;14565;48.626;8.978;2024-02-23T09:51:07;6.43;;;0.80;;
27025;SDS011;14565;48.626;8.978;2024-02-23T09:53:36;5.25;;;0.80;;
27025;SDS011;14565;48.626;8.978;2024-02-23T09:58:28;6.05;;;0.93;;
27025;SDS011;14565;48.626;8.978;2024-02-23T10:00:59;6.65;;;0.73;;
27025;SDS011;14565;48.626;8.978;2024-02-23T10:03:27;3.03;;;0.65;;
27025;SDS011;14565;48.626;8.978;2024-02-23T10:05:55;4.32;;;0.90;;
27025;SDS011;14565;48.626;8.978;2024-02-23T10:08:21;4.20;;;0.60;;
27025;SDS011;14565;48.626;8.978;2024-02-23T10:10:47;7.25;;;0.98;;
27025;SDS011;14565;48.626;8.978;2024-02-23T10:13:19;3.35;;;1.08;;
27025;SDS011;14565;48.626;8.978;2024-02-23T10:15:49;3.90;;;0.70;;
27025;SDS011;14565;48.626;8.978;2024-02-23T10:18:16;3.25;;;0.55;;
27025;SDS011;14565;48.626;8.978;2024-02-23T10:20:42;6.18;;;0.93;;
27025;SDS011;14565;48.626;8.978;2024-02-23T10:23:08;5.60;;;0.70;;
27025;SDS011;14565;48.626;8.978;2024-02-23T10:25:34;4.68;;;0.93;;
27025;SDS011;14565;48.626;8.978;2024-02-23T10:28:01;3.28;;;0.63;;
27025;SDS011;14565;48.626;8.978;2024-02-23T10:30:30;5.90;;;0.98;;
27025;SDS011;14565;48.626;8.978;2024-02-23T10:32:57;2.75;;;0.80;;
27025;SDS011;14565;48.626;8.978;2024-02-23T10:35:23;4.85;;;0.88;;
27025;SDS011;14565;48.626;8.978;2024-02-23T10:37:50;5.55;;;0.80;;
27025;SDS011;14565;48.626;8.978;2024-02-23T10:40:17;3.90;;;1.00;;
27025;SDS011;14565;48.626;8.978;2024-02-23T10:42:44;7.95;;;0.90;;
27025;SDS011;14565;48.626;8.978;2024-02-23T10:45:16;4.85;;;0.70;;
27025;SDS011;14565;48.626;8.978;2024-02-23T10:47:47;7.55;;;0.80;;
27025;SDS011;14565;48.626;8.978;2024-02-23T10:50:13;5.68;;;0.80;;
27025;SDS011;14565;48.626;8.978;2024-02-23T10:52:42;4.10;;;0.65;;
27025;SDS011;14565;48.626;8.978;2024-02-23T10:55:08;3.63;;;0.50;;
27025;SDS011;14565;48.626;8.978;2024-02-23T10:57:35;5.38;;;0.90;;
27025;SDS011;14565;48.626;8.978;2024-02-23T11:00:02;5.95;;;0.98;;
27025;SDS011;14565;48.626;8.978;2024-02-23T11:02:31;5.00;;;0.80;;
27025;SDS011;14565;48.626;8.978;2024-02-23T11:05:00;8.07;;;1.67;;
27025;SDS011;14565;48.626;8.978;2024-02-23T11:07:29;6.68;;;1.10;;
27025;SDS011;14565;48.626;8.978;2024-02-23T11:09:58;2.70;;;0.63;;
27025;SDS011;14565;48.626;8.978;2024-02-23T11:12:25;8.23;;;0.95;;
27025;SDS011;14565;48.626;8.978;2024-02-23T11:14:51;9.70;;;1.50;;
27025;SDS011;14565;48.626;8.978;2024-02-23T11:17:22;7.68;;;1.30;;
27025;SDS011;14565;48.626;8.978;2024-02-23T11:19:51;4.13;;;0.73;;
27025;SDS011;14565;48.626;8.978;2024-02-23T11:22:25;5.40;;;0.80;;
27025;SDS011;14565;48.626;8.978;2024-02-23T11:24:52;4.72;;;0.82;;
27025;SDS011;14565;48.626;8.978;2024-02-23T11:27:18;4.47;;;0.60;;
27025;SDS011;14565;48.626;8.978;2024-02-23T11:29:47;7.15;;;0.85;;
27025;SDS011;14565;48.626;8.978;2024-02-23T11:32:16;8.98;;;1.25;;
27025;SDS011;14565;48.626;8.978;2024-02-23T11:34:53;4.25;;;1.10;;
27025;SDS011;14565;48.626;8.978;2024-02-23T11:37:21;3.15;;;0.70;;
27025;SDS011;14565;48.626;8.978;2024-02-23T11:39:47;2.78;;;0.60;;
27025;SDS011;14565;48.626;8.978;2024-02-23T11:42:13;6.63;;;1.10;;
27025;SDS011;14565;48.626;8.978;2024-02-23T11:44:40;8.10;;;1.10;;
27025;SDS011;14565;48.626;8.978;2024-02-23T11:47:06;7.80;;;0.80;;
27025;SDS011;14565;48.626;8.978;2024-02-23T11:49:32;6.07;;;1.00;;
27025;SDS011;14565;48.626;8.978;2024-02-23T11:51:58;6.22;;;0.77;;
27025;SDS011;14565;48.626;8.978;2024-02-23T11:54:24;3.70;;;0.80;;
27025;SDS011;14565;48.626;8.978;2024-02-23T11:56:50;6.13;;;0.80;;
27025;SDS011;14565;48.626;8.978;2024-02-23T11:59:18;3.50;;;1.10;;
27025;SDS011;14565;48.626;8.978;2024-02-23T12:01:48;3.88;;;0.93;;
27025;SDS011;14565;48.626;8.978;2024-02-23T12:04:14;7.05;;;1.35;;
27025;SDS011;14565;48.626;8.978;2024-02-23T12:06:41;6.80;;;0.90;;
27025;SDS011;14565;48.626;8.978;2024-02-23T12:09:07;10.45;;;3.75;;
27025;SDS011;14565;48.626;8.978;2024-02-23T12:11:33;9.20;;;2.88;;
27025;SDS011;14565;48.626;8.978;2024-02-23T12:14:00;13.95;;;5.18;;
27025;SDS011;14565;48.626;8.978;2024-02-23T12:16:32;15.60;;;6.70;;
27025;SDS011;14565;48.626;8.978;2024-02-23T12:19:00;7.43;;;1.10;;
27025;SDS011;14565;48.626;8.978;2024-02-23T12:21:26;3.63;;;1.10;;
27025;SDS011;14565;48.626;8.978;2024-02-23T12:23:52;2.92;;;0.80;;
27025;SDS011;14565;48.626;8.978;2024-02-23T12:26:18;5.28;;;1.00;;
27025;SDS011;14565;48.626;8.978;2024-02-23T12:28:44;5.28;;;0.98;;
27025;SDS011;14565;48.626;8.978;2024-02-23T12:31:11;7.47;;;0.98;;
27025;SDS011;14565;48.626;8.978;2024-02-23T12:33:37;4.60;;;0.80;;
27025;SDS011;14565;48.626;8.978;2024-02-23T12:36:07;7.93;;;0.73;;
27025;SDS011;14565;48.626;8.978;2024-02-23T12:38:34;4.72;;;0.70;;
27025;SDS011;14565;48.626;8.978;2024-02-23T12:41:00;4.13;;;0.55;;
27025;SDS011;14565;48.626;8.978;2024-02-23T12:43:27;5.40;;;1.10;;
27025;SDS011;14565;48.626;8.978;2024-02-23T12:45:53;6.15;;;0.82;;
27025;SDS011;14565;48.626;8.978;2024-02-23T12:48:20;5.22;;;0.82;;
27025;SDS011;14565;48.626;8.978;2024-02-23T12:50:46;5.13;;;0.63;;
27025;SDS011;14565;48.626;8.978;2024-02-23T12:53:32;3.47;;;0.88;;
27025;SDS011;14565;48.626;8.978;2024-02-23T12:55:59;3.22;;;0.65;;
27025;SDS011;14565;48.626;8.978;2024-02-23T12:58:26;6.00;;;0.80;;
27025;SDS011;14565;48.626;8.978;2024-02-23T13:00:51;3.85;;;0.70;;
27025;SDS011;14565;48.626;8.978;2024-02-23T13:03:17;5.30;;;0.73;;
27025;SDS011;14565;48.626;8.978;2024-02-23T13:05:43;5.85;;;1.15;;
27025;SDS011;14565;48.626;8.978;2024-02-23T13:08:08;4.63;;;0.70;;
27025;SDS011;14565;48.626;8.978;2024-02-23T13:10:34;7.60;;;1.15;;
27025;SDS011;14565;48.626;8.978;2024-02-23T13:13:00;6.80;;;1.20;;
27025;SDS011;14565;48.626;8.978;2024-02-23T13:15:26;6.78;;;1.00;;
27025;SDS011;14565;48.626;8.978;2024-02-23T13:17:51;6.80;;;1.20;;
27025;SDS011;14565;48.626;8.978;2024-02-23T13:20:17;5.50;;;1.10;;
27025;SDS011;14565;48.626;8.978;2024-02-23T13:22:43;4.63;;;0.82;;
27025;SDS011;14565;48.626;8.978;2024-02-23T13:25:08;8.95;;;1.92;;
27025;SDS011;14565;48.626;8.978;2024-02-23T13:27:34;14.15;;;1.45;;
27025;SDS011;14565;48.626;8.978;2024-02-23T13:30:00;4.25;;;0.73;;
27025;SDS011;14565;48.626;8.978;2024-02-23T13:32:25;5.30;;;0.80;;
27025;SDS011;14565;48.626;8.978;2024-02-23T13:34:51;6.22;;;0.85;;
27025;SDS011;14565;48.626;8.978;2024-02-23T13:37:18;3.92;;;0.80;;
27025;SDS011;14565;48.626;8.978;2024-02-23T13:39:43;5.93;;;1.05;;
27025;SDS011;14565;48.626;8.978;2024-02-23T13:42:09;9.30;;;1.20;;
27025;SDS011;14565;48.626;8.978;2024-02-23T13:44:35;7.70;;;0.95;;
27025;SDS011;14565;48.626;8.978;2024-02-23T13:47:01;3.20;;;1.10;;
27025;SDS011;14565;48.626;8.978;2024-02-23T13:49:27;4.70;;;0.82;;
27025;SDS011;14565;48.626;8.978;2024-02-23T13:51:53;5.90;;;1.00;;
27025;SDS011;14565;48.626;8.978;2024-02-23T13:54:19;4.93;;;0.95;;
27025;SDS011;14565;48.626;8.978;2024-02-23T13:56:45;5.47;;;0.88;;
27025;SDS011;14565;48.626;8.978;2024-02-23T13:59:10;5.10;;;1.00;;
27025;SDS011;14565;48.626;8.978;2024-02-23T14:01:36;3.55;;;0.80;;
27025;SDS011;14565;48.626;8.978;2024-02-23T14:04:06;6.90;;;0.80;;
27025;SDS011;14565;48.626;8.978;2024-02-23T14:06:32;9.10;;;1.25;;
27025;SDS011;14565;48.626;8.978;2024-02-23T14:08:58;7.78;;;1.13;;
27025;SDS011;14565;48.626;8.978;2024-02-23T14:11:24;11.82;;;1.20;;
27025;SDS011;14565;48.626;8.978;2024-02-23T14:13:50;4.07;;;0.80;;
27025;SDS011;14565;48.626;8.978;2024-02-23T14:16:16;4.40;;;0.90;;
27025;SDS011;14565;48.626;8.978;2024-02-23T14:18:42;5.05;;;1.00;;
27025;SDS011;14565;48.626;8.978;2024-02-23T14:21:09;5.95;;;1.52;;
27025;SDS011;14565;48.626;8.978;2024-02-23T14:23:35;4.45;;;0.80;;
27025;SDS011;14565;48.626;8.978;2024-02-23T14:26:02;4.55;;;0.85;;
27025;SDS011;14565;48.626;8.978;2024-02-23T14:28:28;5.78;;;0.88;;
27025;SDS011;14565;48.626;8.978;2024-02-23T14:30:54;5.45;;;0.90;;
27025;SDS011;14565;48.626;8.978;2024-02-23T14:33:19;6.80;;;0.90;;
27025;SDS011;14565;48.626;8.978;2024-02-23T14:35:46;7.68;;;0.90;;
27025;SDS011;14565;48.626;8.978;2024-02-23T14:38:12;7.07;;;1.58;;
27025;SDS011;14565;48.626;8.978;2024-02-23T14:40:37;9.70;;;1.08;;
27025;SDS011;14565;48.626;8.978;2024-02-23T14:43:04;5.30;;;0.93;;
27025;SDS011;14565;48.626;8.978;2024-02-23T14:45:30;7.63;;;0.95;;
27025;SDS011;14565;48.626;8.978;2024-02-23T14:47:56;5.85;;;0.80;;